createdAt,value
2018-04-13T00:00:15.676Z,52.10
2018-04-13T00:00:38.600Z,52.10
2018-04-13T00:01:00.655Z,52.70
2018-04-13T00:01:22.745Z,52.20
2018-04-13T00:01:51.154Z,52.10
2018-04-13T00:02:13.215Z,52.10
2018-04-13T00:02:35.262Z,52.10
2018-04-13T00:02:57.379Z,52.10
2018-04-13T00:03:20.194Z,52.10
2018-04-13T00:03:43.031Z,52.40
2018-04-13T00:04:05.851Z,52.10
2018-04-13T00:04:29.421Z,52.10
2018-04-13T00:04:52.252Z,52.10
2018-04-13T00:05:15.079Z,52.60
2018-04-13T00:05:37.136Z,52.10
2018-04-13T00:05:59.191Z,52.10
2018-04-13T00:06:21.260Z,52.10
2018-04-13T00:06:43.454Z,52.10
2018-04-13T00:07:05.522Z,52.10
2018-04-13T00:07:27.679Z,52.20
2018-04-13T00:07:49.748Z,52.10
2018-04-13T00:08:11.816Z,52.10
2018-04-13T00:08:39.348Z,52.10
2018-04-13T00:09:01.417Z,52.10
2018-04-13T00:09:23.475Z,52.10
2018-04-13T00:09:45.541Z,52.10
2018-04-13T00:10:08.375Z,52.10
2018-04-13T00:10:31.248Z,52.10
2018-04-13T00:10:53.298Z,52.10
2018-04-13T00:11:15.424Z,52.10
2018-04-13T00:11:37.475Z,52.10
2018-04-13T00:12:05.244Z,52.10
2018-04-13T00:12:27.312Z,52.10
2018-04-13T00:12:49.440Z,52.10
2018-04-13T00:13:12.254Z,52.20
2018-04-13T00:13:34.298Z,52.20
2018-04-13T00:13:57.096Z,52.10
2018-04-13T00:14:19.165Z,52.10
2018-04-13T00:14:41.224Z,52.10
2018-04-13T00:15:03.281Z,52.10
2018-04-13T00:15:26.105Z,51.80
2018-04-13T00:15:48.164Z,52.00
2018-04-13T00:16:10.227Z,52.40
2018-04-13T00:16:32.291Z,52.10
2018-04-13T00:16:54.346Z,52.20
2018-04-13T00:17:16.416Z,52.10
2018-04-13T00:17:39.251Z,52.10
2018-04-13T00:18:02.126Z,52.10
2018-04-13T00:18:24.179Z,52.00
2018-04-13T00:18:46.226Z,52.00
2018-04-13T00:19:08.281Z,52.10
2018-04-13T00:19:30.334Z,52.10
2018-04-13T00:19:52.386Z,52.20
2018-04-13T00:20:14.437Z,52.00
2018-04-13T00:20:41.981Z,52.10
2018-04-13T00:21:09.454Z,52.10
2018-04-13T00:21:31.522Z,52.10
2018-04-13T00:21:53.692Z,52.10
2018-04-13T00:22:15.756Z,52.10
2018-04-13T00:22:37.832Z,52.10
2018-04-13T00:22:59.921Z,52.10
2018-04-13T00:23:21.978Z,52.10
2018-04-13T00:23:44.791Z,52.10
2018-04-13T00:24:06.843Z,52.10
2018-04-13T00:24:28.912Z,52.10
2018-04-13T00:24:50.973Z,52.10
2018-04-13T00:25:13.797Z,52.10
2018-04-13T00:25:36.621Z,52.10
2018-04-13T00:25:58.666Z,52.10
2018-04-13T00:26:20.725Z,52.60
2018-04-13T00:26:42.786Z,52.10
2018-04-13T00:27:11.236Z,52.10
2018-04-13T00:27:33.292Z,52.70
2018-04-13T00:27:55.975Z,52.10
2018-04-13T00:28:18.044Z,52.10
2018-04-13T00:28:40.094Z,52.10
2018-04-13T00:29:02.166Z,52.00
2018-04-13T00:29:24.262Z,52.10
2018-04-13T00:29:46.316Z,52.10
2018-04-13T00:30:08.371Z,52.10
2018-04-13T00:30:30.428Z,52.10
2018-04-13T00:30:53.238Z,52.10
2018-04-13T00:31:15.299Z,52.10
2018-04-13T00:31:37.357Z,52.10
2018-04-13T00:31:59.418Z,52.10
2018-04-13T00:32:22.227Z,52.10
2018-04-13T00:32:51.306Z,52.10
2018-04-13T00:33:14.145Z,52.10
2018-04-13T00:33:36.190Z,52.10
2018-04-13T00:33:58.245Z,52.10
2018-04-13T00:34:20.317Z,52.10
2018-04-13T00:34:43.149Z,52.10
2018-04-13T00:35:05.981Z,52.10
2018-04-13T00:35:34.344Z,52.10
2018-04-13T00:35:57.159Z,52.10
2018-04-13T00:36:19.221Z,52.10
2018-04-13T00:36:41.273Z,52.00
2018-04-13T00:37:03.331Z,52.10
2018-04-13T00:37:31.675Z,52.10
2018-04-13T00:37:53.750Z,52.00
2018-04-13T00:38:21.334Z,52.00
2018-04-13T00:38:43.400Z,52.00
2018-04-13T00:39:05.459Z,52.00
2018-04-13T00:39:27.597Z,52.00
2018-04-13T00:39:49.647Z,52.00
2018-04-13T00:40:11.883Z,52.00
2018-04-13T00:40:33.944Z,52.00
2018-04-13T00:40:56.014Z,52.00
2018-04-13T00:41:18.082Z,52.00
2018-04-13T00:41:40.152Z,52.00
2018-04-13T00:42:02.221Z,52.00
2018-04-13T00:42:24.286Z,52.00
2018-04-13T00:42:46.356Z,52.00
2018-04-13T00:43:08.435Z,52.00
2018-04-13T00:43:30.485Z,52.00
2018-04-13T00:43:52.569Z,52.00
2018-04-13T00:44:14.622Z,52.00
2018-04-13T00:44:36.688Z,52.00
2018-04-13T00:44:58.718Z,52.00
2018-04-13T00:45:20.781Z,52.00
2018-04-13T00:45:42.837Z,52.00
2018-04-13T00:46:04.915Z,52.10
2018-04-13T00:46:26.977Z,52.00
2018-04-13T00:46:54.540Z,52.00
2018-04-13T00:47:16.587Z,52.00
2018-04-13T00:47:38.638Z,52.00
2018-04-13T00:48:01.659Z,52.00
2018-04-13T00:48:23.740Z,52.00
2018-04-13T00:48:45.821Z,52.00
2018-04-13T00:49:07.888Z,52.00
2018-04-13T00:49:29.958Z,51.90
2018-04-13T00:49:52.025Z,52.10
2018-04-13T00:50:14.083Z,52.00
2018-04-13T00:50:36.904Z,52.10
2018-04-13T00:50:59.723Z,52.00
2018-04-13T00:51:21.787Z,52.00
2018-04-13T00:51:43.826Z,52.00
2018-04-13T00:52:11.515Z,51.90
2018-04-13T00:52:33.568Z,51.90
2018-04-13T00:53:01.186Z,51.90
2018-04-13T00:53:24.032Z,52.00
2018-04-13T00:53:46.868Z,52.00
2018-04-13T00:54:09.675Z,51.80
2018-04-13T00:54:32.274Z,51.80
2018-04-13T00:54:54.976Z,51.90
2018-04-13T00:55:17.323Z,51.90
2018-04-13T00:55:45.180Z,51.90
2018-04-13T00:56:07.500Z,51.90
2018-04-13T00:56:30.748Z,51.90
2018-04-13T00:56:53.147Z,51.80
2018-04-13T00:57:15.699Z,51.80
2018-04-13T00:57:38.727Z,51.80
2018-04-13T00:58:06.572Z,51.80
2018-04-13T00:58:28.788Z,51.80
2018-04-13T00:58:50.888Z,51.80
2018-04-13T00:59:13.784Z,51.90
2018-04-13T00:59:41.501Z,51.90
2018-04-13T01:00:03.608Z,51.80
2018-04-13T01:00:25.962Z,51.80
2018-04-13T01:00:48.141Z,51.70
2018-04-13T01:01:10.977Z,51.80
2018-04-13T01:01:39.689Z,51.90
2018-04-13T01:02:02.230Z,51.80
2018-04-13T01:02:24.684Z,52.00
2018-04-13T01:02:47.183Z,52.00
2018-04-13T01:03:10.008Z,51.90
2018-04-13T01:03:32.434Z,51.90
2018-04-13T01:03:54.952Z,51.70
2018-04-13T01:04:17.286Z,51.80
2018-04-13T01:04:40.175Z,51.80
2018-04-13T01:05:03.569Z,51.60
2018-04-13T01:05:25.894Z,51.60
2018-04-13T01:05:49.082Z,51.60
2018-04-13T01:06:11.563Z,51.60
2018-04-13T01:06:34.198Z,51.70
2018-04-13T01:06:56.733Z,51.60
2018-04-13T01:07:19.149Z,51.70
2018-04-13T01:07:42.660Z,51.80
2018-04-13T01:08:05.787Z,51.80
2018-04-13T01:08:28.451Z,51.80
2018-04-13T01:08:50.981Z,51.80
2018-04-13T01:09:13.411Z,51.80
2018-04-13T01:09:36.162Z,52.50
2018-04-13T01:10:05.042Z,51.90
2018-04-13T01:10:27.362Z,51.90
2018-04-13T01:10:49.788Z,51.90
2018-04-13T01:11:12.304Z,52.00
2018-04-13T01:11:34.363Z,52.00
2018-04-13T01:11:56.434Z,52.00
2018-04-13T01:12:18.497Z,52.00
2018-04-13T01:12:40.601Z,52.10
2018-04-13T01:13:02.723Z,52.10
2018-04-13T01:13:24.816Z,52.00
2018-04-13T01:13:52.513Z,52.10
2018-04-13T01:14:14.562Z,52.10
2018-04-13T01:14:36.604Z,52.10
2018-04-13T01:14:58.664Z,52.10
2018-04-13T01:15:20.790Z,52.10
2018-04-13T01:15:42.849Z,52.10
2018-04-13T01:16:04.912Z,52.10
2018-04-13T01:16:27.025Z,52.10
2018-04-13T01:16:49.110Z,52.10
2018-04-13T01:17:11.226Z,52.10
2018-04-13T01:17:33.283Z,52.10
2018-04-13T01:17:55.562Z,52.10
2018-04-13T01:18:23.176Z,52.10
2018-04-13T01:18:46.023Z,52.10
2018-04-13T01:19:08.089Z,52.10
2018-04-13T01:19:30.275Z,52.10
2018-04-13T01:19:52.329Z,52.10
2018-04-13T01:20:14.390Z,52.80
2018-04-13T01:20:42.723Z,52.10
2018-04-13T01:21:04.777Z,52.10
2018-04-13T01:21:26.835Z,52.10
2018-04-13T01:21:48.907Z,52.10
2018-04-13T01:22:11.951Z,52.10
2018-04-13T01:22:34.005Z,52.00
2018-04-13T01:22:56.077Z,52.00
2018-04-13T01:23:18.896Z,52.20
2018-04-13T01:23:40.964Z,52.20
2018-04-13T01:24:03.016Z,52.20
2018-04-13T01:24:25.083Z,52.20
2018-04-13T01:24:47.142Z,52.10
2018-04-13T01:25:09.190Z,52.20
2018-04-13T01:25:32.016Z,52.20
2018-04-13T01:25:54.069Z,52.10
2018-04-13T01:26:16.196Z,52.70
2018-04-13T01:26:38.253Z,52.20
2018-04-13T01:27:01.067Z,52.30
2018-04-13T01:27:23.124Z,52.20
2018-04-13T01:27:45.179Z,52.20
2018-04-13T01:28:07.251Z,52.40
2018-04-13T01:28:29.540Z,52.30
2018-04-13T01:28:51.599Z,52.30
2018-04-13T01:29:13.647Z,52.20
2018-04-13T01:29:35.760Z,52.20
2018-04-13T01:29:57.821Z,52.20
2018-04-13T01:30:19.875Z,52.40
2018-04-13T01:30:42.700Z,52.30
2018-04-13T01:31:04.752Z,52.20
2018-04-13T01:31:26.799Z,52.30
2018-04-13T01:31:48.849Z,52.30
2018-04-13T01:32:16.387Z,52.20
2018-04-13T01:32:38.447Z,52.30
2018-04-13T01:33:06.057Z,52.30
2018-04-13T01:33:28.128Z,52.30
2018-04-13T01:33:50.266Z,52.30
2018-04-13T01:34:12.322Z,52.20
2018-04-13T01:34:35.106Z,52.40
2018-04-13T01:34:57.151Z,52.20
2018-04-13T01:35:19.218Z,52.20
2018-04-13T01:35:41.274Z,52.30
2018-04-13T01:36:03.336Z,52.20
2018-04-13T01:36:26.164Z,52.30
2018-04-13T01:36:48.976Z,52.30
2018-04-13T01:37:11.023Z,52.90
2018-04-13T01:37:33.842Z,52.20
2018-04-13T01:37:55.911Z,52.20
2018-04-13T01:38:17.970Z,52.40
2018-04-13T01:38:40.050Z,52.30
2018-04-13T01:39:02.111Z,52.30
2018-04-13T01:39:24.163Z,52.30
2018-04-13T01:39:46.227Z,52.30
2018-04-13T01:40:08.341Z,52.30
2018-04-13T01:40:30.393Z,52.20
2018-04-13T01:40:53.309Z,52.30
2018-04-13T01:41:15.378Z,52.20
2018-04-13T01:41:37.423Z,52.30
2018-04-13T01:41:59.482Z,52.30
2018-04-13T01:42:22.303Z,52.40
2018-04-13T01:42:45.112Z,52.40
2018-04-13T01:43:07.192Z,52.90
2018-04-13T01:43:29.249Z,52.30
2018-04-13T01:43:51.333Z,52.30
2018-04-13T01:44:13.565Z,52.40
2018-04-13T01:44:35.624Z,52.30
2018-04-13T01:44:57.680Z,52.30
2018-04-13T01:45:19.742Z,52.30
2018-04-13T01:45:41.791Z,52.20
2018-04-13T01:46:04.650Z,52.30
2018-04-13T01:46:26.704Z,52.30
2018-04-13T01:46:48.760Z,52.20
2018-04-13T01:47:11.599Z,52.40
2018-04-13T01:47:34.423Z,52.40
2018-04-13T01:47:56.474Z,52.30
2018-04-13T01:48:24.241Z,52.40
2018-04-13T01:48:46.377Z,53.00
2018-04-13T01:49:08.429Z,52.40
2018-04-13T01:49:31.261Z,52.50
2018-04-13T01:49:53.314Z,52.40
2018-04-13T01:50:15.372Z,52.40
2018-04-13T01:50:37.421Z,52.40
2018-04-13T01:51:00.243Z,52.40
2018-04-13T01:51:22.295Z,52.30
2018-04-13T01:51:44.342Z,52.90
2018-04-13T01:52:06.400Z,52.40
2018-04-13T01:52:28.494Z,52.40
2018-04-13T01:52:50.515Z,52.40
2018-04-13T01:53:12.562Z,52.30
2018-04-13T01:53:35.374Z,52.40
2018-04-13T01:53:57.461Z,52.40
2018-04-13T01:54:19.529Z,52.40
2018-04-13T01:54:47.044Z,52.40
2018-04-13T01:55:14.679Z,52.50
2018-04-13T01:55:36.759Z,52.50
2018-04-13T01:55:58.816Z,52.40
2018-04-13T01:56:20.887Z,52.40
2018-04-13T01:56:43.710Z,52.40
2018-04-13T01:57:06.536Z,52.50
2018-04-13T01:57:28.594Z,52.40
2018-04-13T01:57:50.642Z,52.40
2018-04-13T01:58:12.687Z,52.50
2018-04-13T01:58:34.745Z,52.50
2018-04-13T01:58:56.811Z,52.50
2018-04-13T01:59:18.879Z,52.50
2018-04-13T01:59:40.926Z,52.50
2018-04-13T02:00:02.978Z,52.50
2018-04-13T02:00:25.803Z,52.50
2018-04-13T02:00:47.860Z,52.40
2018-04-13T02:01:09.917Z,52.70
2018-04-13T02:01:31.990Z,52.50
2018-04-13T02:01:59.580Z,52.40
2018-04-13T02:02:21.627Z,52.50
2018-04-13T02:02:44.452Z,52.50
2018-04-13T02:03:06.512Z,52.50
2018-04-13T02:03:28.565Z,52.50
2018-04-13T02:03:50.620Z,52.40
2018-04-13T02:04:13.466Z,52.50
2018-04-13T02:04:36.291Z,52.50
2018-04-13T02:04:59.116Z,52.50
2018-04-13T02:05:21.167Z,52.40
2018-04-13T02:05:43.208Z,52.50
2018-04-13T02:06:05.266Z,52.50
2018-04-13T02:06:27.318Z,52.50
2018-04-13T02:06:49.390Z,52.40
2018-04-13T02:07:11.484Z,52.40
2018-04-13T02:07:39.113Z,52.50
2018-04-13T02:08:01.165Z,52.50
2018-04-13T02:08:23.228Z,52.50
2018-04-13T02:08:45.283Z,52.50
2018-04-13T02:09:07.348Z,52.60
2018-04-13T02:09:30.167Z,52.50
2018-04-13T02:09:52.219Z,52.50
2018-04-13T02:10:14.279Z,52.40
2018-04-13T02:10:36.322Z,52.40
2018-04-13T02:10:58.379Z,52.50
2018-04-13T02:11:20.439Z,52.50
2018-04-13T02:11:42.498Z,52.50
2018-04-13T02:12:04.556Z,52.50
2018-04-13T02:12:26.611Z,52.50
2018-04-13T02:12:48.678Z,52.50
2018-04-13T02:13:10.737Z,52.50
2018-04-13T02:13:32.782Z,52.50
2018-04-13T02:13:54.838Z,52.50
2018-04-13T02:14:16.912Z,52.60
2018-04-13T02:14:39.725Z,52.60
2018-04-13T02:15:01.786Z,52.60
2018-04-13T02:15:23.850Z,53.00
2018-04-13T02:15:46.663Z,52.50
2018-04-13T02:16:08.712Z,52.60
2018-04-13T02:16:31.498Z,52.60
2018-04-13T02:16:53.552Z,52.60
2018-04-13T02:17:15.601Z,52.60
2018-04-13T02:17:38.415Z,52.60
2018-04-13T02:18:00.472Z,52.60
2018-04-13T02:18:22.535Z,52.70
2018-04-13T02:18:44.656Z,52.60
2018-04-13T02:19:06.706Z,52.70
2018-04-13T02:19:29.539Z,52.60
2018-04-13T02:19:52.367Z,52.70
2018-04-13T02:20:15.184Z,52.70
2018-04-13T02:20:37.251Z,53.30
2018-04-13T02:20:59.312Z,52.70
2018-04-13T02:21:21.372Z,52.70
2018-04-13T02:21:43.580Z,52.70
2018-04-13T02:22:06.395Z,52.70
2018-04-13T02:22:29.956Z,52.70
2018-04-13T02:22:52.788Z,52.70
2018-04-13T02:23:15.616Z,52.90
2018-04-13T02:23:37.783Z,52.60
2018-04-13T02:23:59.837Z,52.60
2018-04-13T02:24:27.409Z,52.70
2018-04-13T02:24:50.229Z,52.90
2018-04-13T02:25:12.275Z,52.70
2018-04-13T02:25:35.095Z,52.70
2018-04-13T02:25:57.147Z,52.70
2018-04-13T02:26:19.204Z,52.70
2018-04-13T02:26:41.264Z,52.70
2018-04-13T02:27:04.076Z,52.70
2018-04-13T02:27:26.135Z,52.70
2018-04-13T02:27:48.261Z,53.30
2018-04-13T02:28:10.318Z,52.70
2018-04-13T02:28:32.368Z,52.70
2018-04-13T02:28:55.192Z,52.70
2018-04-13T02:29:18.043Z,52.80
2018-04-13T02:29:40.113Z,52.70
2018-04-13T02:30:02.170Z,52.80
2018-04-13T02:30:24.997Z,52.80
2018-04-13T02:30:47.820Z,52.80
2018-04-13T02:31:09.871Z,52.80
2018-04-13T02:31:37.615Z,52.80
2018-04-13T02:31:59.680Z,52.80
2018-04-13T02:32:21.733Z,52.80
2018-04-13T02:32:44.547Z,52.90
2018-04-13T02:33:06.603Z,52.80
2018-04-13T02:33:28.671Z,52.80
2018-04-13T02:33:56.331Z,52.90
2018-04-13T02:34:23.944Z,52.90
2018-04-13T02:34:45.907Z,52.90
2018-04-13T02:35:07.983Z,52.90
2018-04-13T02:35:30.058Z,52.90
2018-04-13T02:35:52.881Z,52.90
2018-04-13T02:36:15.716Z,53.00
2018-04-13T02:36:38.545Z,52.90
2018-04-13T02:37:06.184Z,52.90
2018-04-13T02:37:33.756Z,52.90
2018-04-13T02:37:56.010Z,52.90
2018-04-13T02:38:18.062Z,52.90
2018-04-13T02:38:45.748Z,53.00
2018-04-13T02:39:08.560Z,53.00
2018-04-13T02:39:30.628Z,53.00
2018-04-13T02:39:52.706Z,53.00
2018-04-13T02:40:15.533Z,53.00
2018-04-13T02:40:37.597Z,53.00
2018-04-13T02:40:59.653Z,53.00
2018-04-13T02:41:21.835Z,53.00
2018-04-13T02:41:43.888Z,53.00
2018-04-13T02:42:05.940Z,53.10
2018-04-13T02:42:28.758Z,53.10
2018-04-13T02:42:51.595Z,53.00
2018-04-13T02:43:14.416Z,53.50
2018-04-13T02:43:42.216Z,53.00
2018-04-13T02:44:04.283Z,53.00
2018-04-13T02:44:26.359Z,53.00
2018-04-13T02:44:48.408Z,53.00
2018-04-13T02:45:10.517Z,53.00
2018-04-13T02:45:32.568Z,53.00
2018-04-13T02:45:54.631Z,53.00
2018-04-13T02:46:16.684Z,53.00
2018-04-13T02:46:38.731Z,53.00
2018-04-13T02:47:07.081Z,53.00
2018-04-13T02:47:29.914Z,53.00
2018-04-13T02:47:57.648Z,53.00
2018-04-13T02:48:19.704Z,53.00
2018-04-13T02:48:42.536Z,53.00
2018-04-13T02:49:05.359Z,53.00
2018-04-13T02:49:27.440Z,53.00
2018-04-13T02:49:49.489Z,53.00
2018-04-13T02:50:11.547Z,53.00
2018-04-13T02:50:33.673Z,53.00
2018-04-13T02:50:55.739Z,53.10
2018-04-13T02:51:17.779Z,53.10
2018-04-13T02:51:40.594Z,53.10
2018-04-13T02:52:02.648Z,53.10
2018-04-13T02:52:24.700Z,53.10
2018-04-13T02:52:46.765Z,53.10
2018-04-13T02:53:09.597Z,53.10
2018-04-13T02:53:32.420Z,53.10
2018-04-13T02:53:55.247Z,53.50
2018-04-13T02:54:17.298Z,53.10
2018-04-13T02:54:39.405Z,53.00
2018-04-13T02:55:02.228Z,53.10
2018-04-13T02:55:25.057Z,53.10
2018-04-13T02:55:47.118Z,53.10
2018-04-13T02:56:09.184Z,53.10
2018-04-13T02:56:31.244Z,53.10
2018-04-13T02:56:53.298Z,53.10
2018-04-13T02:57:15.356Z,53.10
2018-04-13T02:57:38.178Z,53.10
2018-04-13T02:58:00.263Z,53.10
2018-04-13T02:58:22.307Z,53.10
2018-04-13T02:58:44.365Z,53.10
2018-04-13T02:59:06.415Z,53.10
2018-04-13T02:59:28.466Z,53.20
2018-04-13T02:59:50.537Z,53.20
2018-04-13T03:00:12.582Z,53.20
2018-04-13T03:00:34.631Z,53.20
2018-04-13T03:00:57.460Z,53.20
2018-04-13T03:01:20.275Z,53.20
2018-04-13T03:01:47.902Z,53.10
2018-04-13T03:02:10.073Z,53.20
2018-04-13T03:02:32.901Z,53.30
2018-04-13T03:02:55.735Z,53.20
2018-04-13T03:03:18.557Z,53.30
2018-04-13T03:03:40.602Z,53.20
2018-04-13T03:04:08.214Z,53.30
2018-04-13T03:04:30.286Z,53.30
2018-04-13T03:04:52.375Z,53.20
2018-04-13T03:05:20.694Z,53.20
2018-04-13T03:05:42.748Z,53.20
2018-04-13T03:06:05.567Z,53.30
2018-04-13T03:06:27.622Z,53.20
2018-04-13T03:06:49.685Z,53.20
2018-04-13T03:07:11.748Z,53.30
2018-04-13T03:07:33.899Z,53.30
2018-04-13T03:07:56.689Z,53.30
2018-04-13T03:08:19.735Z,53.30
2018-04-13T03:08:42.543Z,53.30
2018-04-13T03:09:04.596Z,53.30
2018-04-13T03:09:26.651Z,53.30
2018-04-13T03:09:48.706Z,53.30
2018-04-13T03:10:10.783Z,53.30
2018-04-13T03:10:32.926Z,53.30
2018-04-13T03:11:00.656Z,53.30
2018-04-13T03:11:22.723Z,53.30
2018-04-13T03:11:45.590Z,53.30
2018-04-13T03:12:07.655Z,53.30
2018-04-13T03:12:29.717Z,53.30
2018-04-13T03:12:57.302Z,53.30
2018-04-13T03:13:19.354Z,53.30
2018-04-13T03:13:42.178Z,53.40
2018-04-13T03:14:04.241Z,53.90
2018-04-13T03:14:26.290Z,54.00
2018-04-13T03:14:48.382Z,53.40
2018-04-13T03:15:10.450Z,53.40
2018-04-13T03:15:32.550Z,53.30
2018-04-13T03:15:54.602Z,53.30
2018-04-13T03:16:17.432Z,53.30
2018-04-13T03:16:40.259Z,53.30
2018-04-13T03:17:03.078Z,53.40
2018-04-13T03:17:30.619Z,53.40
2018-04-13T03:17:52.652Z,53.40
2018-04-13T03:18:15.692Z,53.40
2018-04-13T03:18:37.727Z,53.40
2018-04-13T03:19:06.235Z,53.30
2018-04-13T03:19:28.282Z,53.30
2018-04-13T03:19:50.341Z,53.30
2018-04-13T03:20:12.395Z,53.40
2018-04-13T03:20:34.478Z,53.40
2018-04-13T03:20:56.531Z,53.40
2018-04-13T03:21:18.583Z,53.40
2018-04-13T03:21:40.631Z,53.40
2018-04-13T03:22:02.691Z,53.40
2018-04-13T03:22:24.749Z,53.40
2018-04-13T03:22:47.567Z,53.30
2018-04-13T03:23:15.095Z,53.30
2018-04-13T03:23:37.154Z,53.40
2018-04-13T03:23:59.213Z,53.40
2018-04-13T03:24:21.264Z,53.50
2018-04-13T03:24:44.098Z,53.00
2018-04-13T03:25:06.921Z,52.90
2018-04-13T03:25:28.976Z,53.40
2018-04-13T03:25:51.121Z,53.40
2018-04-13T03:26:13.175Z,53.50
2018-04-13T03:26:40.841Z,53.50
2018-04-13T03:27:03.660Z,53.50
2018-04-13T03:27:25.720Z,53.50
2018-04-13T03:27:47.775Z,53.50
2018-04-13T03:28:09.829Z,53.50
2018-04-13T03:28:38.191Z,53.50
2018-04-13T03:29:06.534Z,53.60
2018-04-13T03:29:28.593Z,53.50
2018-04-13T03:29:56.206Z,53.60
2018-04-13T03:30:18.423Z,53.50
2018-04-13T03:30:40.474Z,53.50
2018-04-13T03:31:02.570Z,53.50
2018-04-13T03:31:25.392Z,53.60
2018-04-13T03:31:47.461Z,53.70
2018-04-13T03:32:09.507Z,53.60
2018-04-13T03:32:31.566Z,53.60
2018-04-13T03:32:54.384Z,53.70
2018-04-13T03:33:16.438Z,53.60
2018-04-13T03:33:38.500Z,53.70
2018-04-13T03:34:00.544Z,53.60
2018-04-13T03:34:22.592Z,53.60
2018-04-13T03:34:44.644Z,53.60
2018-04-13T03:35:06.701Z,53.70
2018-04-13T03:35:29.529Z,53.60
2018-04-13T03:35:51.575Z,53.60
2018-04-13T03:36:13.661Z,53.60
2018-04-13T03:36:35.749Z,53.60
2018-04-13T03:36:57.816Z,53.60
2018-04-13T03:37:20.633Z,53.60
2018-04-13T03:37:48.139Z,53.60
2018-04-13T03:38:10.263Z,53.30
2018-04-13T03:38:32.413Z,53.70
2018-04-13T03:38:59.957Z,54.30
2018-04-13T03:39:22.012Z,54.20
2018-04-13T03:39:44.079Z,53.70
2018-04-13T03:40:06.138Z,53.70
2018-04-13T03:40:28.202Z,53.80
2018-04-13T03:40:50.318Z,53.80
2018-04-13T03:41:12.370Z,53.80
2018-04-13T03:41:34.433Z,53.80
2018-04-13T03:41:56.479Z,53.80
2018-04-13T03:42:18.531Z,53.80
2018-04-13T03:42:41.368Z,53.80
2018-04-13T03:43:04.187Z,53.80
2018-04-13T03:43:27.016Z,53.80
2018-04-13T03:43:49.072Z,53.80
2018-04-13T03:44:11.122Z,53.90
2018-04-13T03:44:33.275Z,53.90
2018-04-13T03:44:55.328Z,54.40
2018-04-13T03:45:17.556Z,53.90
2018-04-13T03:45:39.613Z,53.90
2018-04-13T03:46:01.683Z,53.90
2018-04-13T03:46:29.296Z,53.90
2018-04-13T03:46:51.354Z,53.90
2018-04-13T03:47:13.424Z,54.50
2018-04-13T03:47:35.469Z,54.00
2018-04-13T03:47:58.344Z,53.90
2018-04-13T03:48:20.503Z,54.00
2018-04-13T03:48:42.557Z,53.90
2018-04-13T03:49:04.627Z,54.70
2018-04-13T03:49:32.302Z,54.00
2018-04-13T03:50:00.653Z,54.10
2018-04-13T03:50:22.706Z,53.90
2018-04-13T03:50:44.761Z,54.00
2018-04-13T03:51:06.817Z,54.10
2018-04-13T03:51:29.680Z,54.10
2018-04-13T03:51:51.735Z,54.10
2018-04-13T03:52:13.801Z,54.00
2018-04-13T03:52:35.859Z,54.20
2018-04-13T03:52:57.897Z,54.20
2018-04-13T03:53:19.952Z,54.10
2018-04-13T03:53:47.602Z,54.10
2018-04-13T03:54:09.655Z,54.10
2018-04-13T03:54:31.740Z,54.10
2018-04-13T03:54:54.519Z,54.10
2018-04-13T03:55:16.586Z,54.20
2018-04-13T03:55:44.207Z,54.20
2018-04-13T03:56:06.260Z,54.20
2018-04-13T03:56:28.310Z,54.20
2018-04-13T03:56:50.391Z,54.20
2018-04-13T03:57:12.426Z,54.20
2018-04-13T03:57:34.475Z,54.20
2018-04-13T03:57:56.535Z,54.30
2018-04-13T03:58:18.585Z,54.20
2018-04-13T03:58:40.643Z,54.30
2018-04-13T03:59:08.181Z,54.40
2018-04-13T03:59:30.239Z,54.30
2018-04-13T03:59:52.306Z,54.30
2018-04-13T04:00:14.355Z,54.40
2018-04-13T04:00:37.204Z,54.30
2018-04-13T04:01:04.770Z,54.30
2018-04-13T04:01:26.831Z,54.40
2018-04-13T04:01:48.900Z,55.00
2018-04-13T04:02:16.466Z,54.40
2018-04-13T04:02:38.533Z,54.40
2018-04-13T04:03:01.365Z,54.40
2018-04-13T04:03:24.179Z,54.40
2018-04-13T04:03:46.222Z,54.40
2018-04-13T04:04:09.039Z,54.40
2018-04-13T04:04:31.088Z,54.40
2018-04-13T04:04:53.139Z,54.50
2018-04-13T04:05:15.183Z,54.50
2018-04-13T04:05:37.299Z,54.50
2018-04-13T04:05:59.365Z,54.50
2018-04-13T04:06:26.976Z,54.50
2018-04-13T04:06:49.032Z,54.50
2018-04-13T04:07:11.165Z,54.70
2018-04-13T04:07:33.251Z,55.10
2018-04-13T04:07:56.073Z,54.70
2018-04-13T04:08:18.908Z,54.70
2018-04-13T04:08:41.740Z,54.50
2018-04-13T04:09:04.566Z,55.10
2018-04-13T04:09:26.619Z,54.60
2018-04-13T04:09:48.663Z,54.60
2018-04-13T04:10:10.724Z,54.70
2018-04-13T04:10:32.774Z,54.60
2018-04-13T04:10:54.869Z,54.60
2018-04-13T04:11:16.898Z,54.50
2018-04-13T04:11:38.965Z,54.60
2018-04-13T04:12:01.059Z,54.60
2018-04-13T04:12:28.772Z,54.70
2018-04-13T04:12:51.768Z,54.70
2018-04-13T04:13:13.814Z,54.70
2018-04-13T04:13:35.897Z,54.60
2018-04-13T04:13:57.984Z,54.80
2018-04-13T04:14:20.046Z,54.70
2018-04-13T04:14:42.102Z,54.70
2018-04-13T04:15:04.206Z,54.70
2018-04-13T04:15:26.266Z,55.30
2018-04-13T04:15:48.319Z,54.10
2018-04-13T04:16:16.102Z,54.70
2018-04-13T04:16:38.918Z,54.80
2018-04-13T04:17:00.973Z,54.80
2018-04-13T04:17:23.024Z,54.70
2018-04-13T04:17:45.078Z,54.70
2018-04-13T04:18:07.165Z,54.70
2018-04-13T04:18:29.215Z,54.80
2018-04-13T04:18:57.574Z,55.50
2018-04-13T04:19:19.824Z,54.80
2018-04-13T04:19:41.878Z,55.00
2018-04-13T04:20:03.932Z,55.00
2018-04-13T04:20:26.004Z,54.90
2018-04-13T04:20:48.051Z,54.90
2018-04-13T04:21:15.669Z,54.90
2018-04-13T04:21:37.715Z,54.90
2018-04-13T04:21:59.945Z,55.00
2018-04-13T04:22:21.999Z,55.00
2018-04-13T04:22:49.726Z,55.10
2018-04-13T04:23:12.563Z,55.00
2018-04-13T04:23:35.396Z,55.70
2018-04-13T04:23:58.212Z,55.10
2018-04-13T04:24:20.277Z,55.00
2018-04-13T04:24:42.330Z,55.00
2018-04-13T04:25:04.401Z,55.00
2018-04-13T04:25:26.473Z,55.00
2018-04-13T04:25:48.612Z,55.00
2018-04-13T04:26:10.622Z,55.00
2018-04-13T04:26:32.675Z,55.00
2018-04-13T04:26:54.736Z,54.90
2018-04-13T04:27:16.797Z,54.90
2018-04-13T04:27:39.616Z,54.90
2018-04-13T04:28:02.439Z,55.10
2018-04-13T04:28:24.482Z,54.90
2018-04-13T04:28:47.309Z,54.90
2018-04-13T04:29:10.130Z,54.80
2018-04-13T04:29:32.254Z,54.80
2018-04-13T04:29:54.298Z,54.80
2018-04-13T04:30:16.368Z,54.90
2018-04-13T04:30:38.422Z,54.90
2018-04-13T04:31:01.243Z,54.90
2018-04-13T04:31:23.321Z,54.80
2018-04-13T04:31:45.366Z,54.70
2018-04-13T04:32:07.415Z,54.90
2018-04-13T04:32:30.231Z,54.80
2018-04-13T04:32:52.303Z,54.70
2018-04-13T04:33:14.504Z,54.80
2018-04-13T04:33:36.574Z,54.80
2018-04-13T04:33:58.625Z,54.80
2018-04-13T04:34:20.678Z,54.80
2018-04-13T04:34:48.200Z,54.90
2018-04-13T04:35:10.398Z,55.00
2018-04-13T04:35:33.220Z,54.90
2018-04-13T04:35:55.277Z,54.90
2018-04-13T04:36:17.340Z,54.90
2018-04-13T04:36:39.396Z,54.80
2018-04-13T04:37:01.451Z,54.80
2018-04-13T04:37:23.500Z,54.80
2018-04-13T04:37:45.553Z,54.90
2018-04-13T04:38:07.599Z,54.70
2018-04-13T04:38:29.677Z,54.70
2018-04-13T04:38:52.531Z,54.70
2018-04-13T04:39:14.592Z,54.60
2018-04-13T04:39:36.658Z,54.70
2018-04-13T04:39:58.708Z,54.70
2018-04-13T04:40:20.765Z,54.70
2018-04-13T04:40:49.119Z,54.70
2018-04-13T04:41:11.168Z,54.70
2018-04-13T04:41:33.226Z,54.70
2018-04-13T04:41:55.277Z,54.80
2018-04-13T04:42:17.324Z,54.70
2018-04-13T04:42:39.374Z,54.70
2018-04-13T04:43:01.430Z,54.70
2018-04-13T04:43:29.947Z,54.70
2018-04-13T04:43:52.058Z,54.60
2018-04-13T04:44:14.108Z,54.60
2018-04-13T04:44:36.172Z,54.60
2018-04-13T04:44:58.230Z,54.60
2018-04-13T04:45:20.280Z,54.60
2018-04-13T04:45:42.330Z,54.60
2018-04-13T04:46:04.379Z,54.30
2018-04-13T04:46:26.435Z,54.60
2018-04-13T04:46:49.256Z,54.60
2018-04-13T04:47:11.318Z,54.60
2018-04-13T04:47:33.363Z,54.70
2018-04-13T04:48:00.939Z,54.60
2018-04-13T04:48:22.992Z,54.60
2018-04-13T04:48:45.043Z,54.60
2018-04-13T04:49:07.139Z,54.60
2018-04-13T04:49:29.192Z,54.50
2018-04-13T04:49:51.244Z,54.50
2018-04-13T04:50:14.072Z,54.60
2018-04-13T04:50:36.903Z,54.60
2018-04-13T04:51:04.432Z,54.60
2018-04-13T04:51:26.545Z,54.60
2018-04-13T04:51:48.598Z,54.50
2018-04-13T04:52:11.514Z,54.50
2018-04-13T04:52:33.566Z,54.50
2018-04-13T04:53:01.274Z,54.40
2018-04-13T04:53:23.331Z,54.40